createdAt,value
2022-11-12T00:01:05.755Z,101238.53
2022-11-12T00:03:32.464Z,101230.91
2022-11-12T00:05:59.531Z,101227.56
2022-11-12T00:08:26.685Z,101228.38
2022-11-12T00:10:53.503Z,101225.00
2022-11-12T00:13:20.286Z,101209.81
2022-11-12T00:15:47.576Z,101227.53
2022-11-12T00:18:14.540Z,101223.25
2022-11-12T00:20:41.275Z,101221.50
2022-11-12T00:23:08.001Z,101222.31
2022-11-12T00:25:34.883Z,101214.66
2022-11-12T00:28:08.395Z,101218.91
2022-11-12T00:30:38.192Z,101216.28
2022-11-12T00:33:06.512Z,101219.75
2022-11-12T00:35:34.049Z,101220.53
2022-11-12T00:38:01.128Z,101221.44
2022-11-12T00:40:29.373Z,101223.03
2022-11-12T00:42:56.493Z,101219.72
2022-11-12T00:45:24.319Z,101223.88
2022-11-12T00:47:58.055Z,101222.25
2022-11-12T00:50:25.615Z,101228.09
2022-11-12T00:52:53.550Z,101217.19
2022-11-12T00:55:20.541Z,101220.53
2022-11-12T00:57:47.331Z,101225.66
2022-11-12T01:00:19.128Z,101226.53
2022-11-12T01:02:50.786Z,101227.38
2022-11-12T01:05:19.899Z,101229.06
2022-11-12T01:07:53.119Z,101231.56
2022-11-12T01:10:22.496Z,101224.72
2022-11-12T01:12:49.322Z,101219.59
2022-11-12T01:15:16.186Z,101220.47
2022-11-12T01:17:42.924Z,101225.59
2022-11-12T01:20:09.942Z,101223.97
2022-11-12T01:22:36.682Z,101229.00
2022-11-12T01:25:03.716Z,101226.47
2022-11-12T01:27:30.489Z,101228.19
2022-11-12T01:29:57.222Z,101233.22
2022-11-12T01:32:23.974Z,101231.59
2022-11-12T01:34:51.544Z,101228.19
2022-11-12T01:37:24.897Z,101233.22
2022-11-12T01:39:51.612Z,101234.06
2022-11-12T01:42:18.338Z,101231.47
2022-11-12T01:44:46.465Z,101229.81
2022-11-12T01:47:34.892Z,101230.59
2022-11-12T01:50:21.240Z,101233.94
2022-11-12T01:52:57.937Z,101237.25
2022-11-12T01:55:32.137Z,101232.16
2022-11-12T01:58:16.103Z,101234.72
2022-11-12T02:00:43.356Z,101232.16
2022-11-12T02:03:19.170Z,101236.34
2022-11-12T02:05:53.160Z,101233.81
2022-11-12T02:08:22.523Z,101230.44
2022-11-12T02:10:50.657Z,101232.13
2022-11-12T02:13:37.969Z,101237.97
2022-11-12T02:16:08.571Z,101237.06
2022-11-12T02:18:35.285Z,101235.31
2022-11-12T02:21:09.188Z,101232.72
2022-11-12T02:23:37.180Z,101232.56
2022-11-12T02:26:04.016Z,101235.84
2022-11-12T02:28:32.970Z,101233.28
2022-11-12T02:30:59.734Z,101227.34
2022-11-12T02:33:26.505Z,101230.66
2022-11-12T02:35:53.266Z,101230.63
2022-11-12T02:38:20.269Z,101230.63
2022-11-12T02:40:46.978Z,101221.38
2022-11-12T02:43:13.679Z,101222.19
2022-11-12T02:45:40.404Z,101223.03
2022-11-12T02:48:07.119Z,101228.09
2022-11-12T02:50:33.843Z,101226.41
2022-11-12T02:53:00.528Z,101223.03
2022-11-12T02:55:27.301Z,101224.72
2022-11-12T02:57:58.685Z,101223.88
2022-11-12T03:00:25.821Z,101223.09
2022-11-12T03:03:01.616Z,101228.19
2022-11-12T03:05:31.523Z,101218.88
2022-11-12T03:08:00.260Z,101216.34
2022-11-12T03:10:28.554Z,101219.75
2022-11-12T03:12:58.750Z,101220.59
2022-11-12T03:15:27.083Z,101218.88
2022-11-12T03:17:54.211Z,101212.06
2022-11-12T03:20:21.204Z,101212.94
2022-11-12T03:23:00.276Z,101208.69
2022-11-12T03:25:28.832Z,101198.47
2022-11-12T03:28:08.589Z,101196.81
2022-11-12T03:30:39.165Z,101195.91
2022-11-12T03:33:08.412Z,101198.44
2022-11-12T03:35:36.011Z,101196.78
2022-11-12T03:38:03.511Z,101202.63
2022-11-12T03:40:30.768Z,101198.38
2022-11-12T03:42:57.919Z,101194.16
2022-11-12T03:45:27.537Z,101195.81
2022-11-12T03:47:57.538Z,101184.00
2022-11-12T03:50:28.901Z,101181.44
2022-11-12T03:52:59.431Z,101192.44
2022-11-12T03:55:28.576Z,101182.34
2022-11-12T03:57:56.850Z,101185.72
2022-11-12T04:00:26.754Z,101178.13
2022-11-12T04:02:54.505Z,101188.28
2022-11-12T04:05:40.319Z,101184.94
2022-11-12T04:08:34.474Z,101184.91
2022-11-12T04:11:10.048Z,101179.81
2022-11-12T04:13:38.558Z,101179.81
2022-11-12T04:16:34.676Z,101170.53
2022-11-12T04:19:21.351Z,101171.31
2022-11-12T04:21:56.162Z,101178.91
2022-11-12T04:24:51.840Z,101180.59
2022-11-12T04:27:21.453Z,101173.78
2022-11-12T04:30:09.024Z,101175.41
2022-11-12T04:32:50.222Z,101171.09
2022-11-12T04:35:18.902Z,101173.59
2022-11-12T04:37:46.228Z,101166.03
2022-11-12T04:40:46.135Z,101168.56
2022-11-12T04:43:36.147Z,101158.34
2022-11-12T04:46:05.272Z,101157.44
2022-11-12T04:48:32.096Z,101158.28
2022-11-12T04:51:28.695Z,101160.03
2022-11-12T04:53:55.635Z,101155.88
2022-11-12T04:56:22.389Z,101157.63
2022-11-12T04:58:49.237Z,101155.16
2022-11-12T05:01:16.415Z,101153.47
2022-11-12T05:03:43.215Z,101154.38
2022-11-12T05:06:30.195Z,101148.53
2022-11-12T05:08:56.956Z,101149.34
2022-11-12T05:11:24.183Z,101146.03
2022-11-12T05:13:51.245Z,101145.22
2022-11-12T05:16:17.976Z,101145.22
2022-11-12T05:18:44.943Z,101141.88
2022-11-12T05:21:30.031Z,101139.38
2022-11-12T05:23:57.068Z,101141.03
2022-11-12T05:26:23.856Z,101136.88
2022-11-12T05:28:50.737Z,101119.19
2022-11-12T05:31:17.462Z,101121.00
2022-11-12T05:33:44.178Z,101115.16
2022-11-12T05:36:10.852Z,101115.19
2022-11-12T05:38:39.081Z,101112.69
2022-11-12T05:41:05.937Z,101113.56
2022-11-12T05:43:32.659Z,101113.56
2022-11-12T05:45:59.404Z,101116.09
2022-11-12T05:48:26.457Z,101116.91
2022-11-12T05:53:42.289Z,101110.91
2022-11-12T05:56:10.486Z,101113.44
2022-11-12T05:58:37.689Z,101109.16
2022-11-12T06:01:05.065Z,101104.06
2022-11-12T06:03:32.192Z,101103.13
2022-11-12T06:05:59.383Z,101110.63
2022-11-12T06:08:26.489Z,101116.47
2022-11-12T06:10:54.750Z,101121.38
2022-11-12T06:13:24.056Z,101123.00
2022-11-12T06:15:52.509Z,101113.56
2022-11-12T06:18:19.721Z,101121.03
2022-11-12T06:21:07.270Z,101123.50
2022-11-12T06:23:34.328Z,101129.22
2022-11-12T06:26:01.495Z,101135.00
2022-11-12T06:28:29.001Z,101139.09
2022-11-12T06:30:56.053Z,101148.28
2022-11-12T06:33:23.120Z,101148.19
2022-11-12T06:36:03.137Z,101146.38
2022-11-12T06:38:32.555Z,101147.97
2022-11-12T06:40:59.596Z,101144.50
2022-11-12T06:43:29.681Z,101155.41
2022-11-12T06:46:01.820Z,101158.69
2022-11-12T06:48:29.782Z,101161.16
2022-11-12T06:50:57.947Z,101157.72
2022-11-12T06:53:25.726Z,101170.28
2022-11-12T06:55:52.902Z,101174.44
2022-11-12T06:58:19.698Z,101176.09
2022-11-12T07:00:46.481Z,101173.53
2022-11-12T07:03:14.972Z,101175.97
2022-11-12T07:05:41.789Z,101175.13
2022-11-12T07:08:08.602Z,101180.22
2022-11-12T07:10:35.333Z,101179.41
2022-11-12T07:13:02.110Z,101184.63
2022-11-12T07:15:28.842Z,101185.53
2022-11-12T07:17:55.536Z,101178.16
2022-11-12T07:20:22.277Z,101181.06
2022-11-12T07:22:48.963Z,101177.41
2022-11-12T07:25:16.036Z,101174.63
2022-11-12T07:27:42.732Z,101176.03
2022-11-12T07:30:10.169Z,101175.63
2022-11-12T07:32:42.037Z,101169.16
2022-11-12T07:35:11.756Z,101172.69
2022-11-12T07:37:38.613Z,101165.34
2022-11-12T07:40:06.589Z,101163.25
2022-11-12T07:42:34.814Z,101159.84
2022-11-12T07:45:01.726Z,101156.53
2022-11-12T07:47:28.491Z,101160.84
2022-11-12T07:49:55.369Z,101157.63
2022-11-12T07:52:22.257Z,101153.53
2022-11-12T07:54:48.988Z,101158.84
2022-11-12T07:57:15.691Z,101159.66
2022-11-12T07:59:46.124Z,101154.25
2022-11-12T08:02:13.201Z,101154.56
2022-11-12T08:04:39.929Z,101161.47
2022-11-12T08:07:06.837Z,101159.81
2022-11-12T08:09:33.733Z,101164.91
2022-11-12T08:12:00.551Z,101174.19
2022-11-12T08:14:27.263Z,101164.50
2022-11-12T08:16:54.027Z,101169.09
2022-11-12T08:19:20.791Z,101174.28
2022-11-12T08:21:47.606Z,101164.63
2022-11-12T08:24:14.331Z,101171.00
2022-11-12T08:26:41.321Z,101170.31
2022-11-12T08:29:09.015Z,101161.91
2022-11-12T08:31:36.035Z,101166.38
2022-11-12T08:34:12.125Z,101169.84
2022-11-12T08:36:40.430Z,101163.00
2022-11-12T08:39:07.858Z,101167.69
2022-11-12T08:41:34.620Z,101173.88
2022-11-12T08:44:07.123Z,101165.56
2022-11-12T08:46:35.003Z,101170.34
2022-11-12T08:49:01.917Z,101168.88
2022-11-12T08:51:28.671Z,101167.25
2022-11-12T08:53:55.455Z,101173.94
2022-11-12T08:56:22.286Z,101166.72
2022-11-12T08:58:48.982Z,101163.34
2022-11-12T09:01:16.331Z,101167.19
2022-11-12T09:03:43.157Z,101156.50
2022-11-12T09:06:09.938Z,101168.03
2022-11-12T09:08:37.840Z,101156.03
2022-11-12T09:11:05.613Z,101156.19
2022-11-12T09:13:32.906Z,101150.44
2022-11-12T09:16:05.584Z,101145.41
2022-11-12T09:18:33.874Z,101153.28
2022-11-12T09:21:09.984Z,101157.56
2022-11-12T09:23:37.235Z,101161.78
2022-11-12T09:26:05.370Z,101153.78
2022-11-12T09:28:33.062Z,101150.03
2022-11-12T09:30:59.948Z,101151.53
2022-11-12T09:33:32.865Z,101149.81
2022-11-12T09:36:04.052Z,101158.59
2022-11-12T09:38:31.394Z,101150.22
2022-11-12T09:41:13.290Z,101154.81
2022-11-12T09:43:53.209Z,101143.56
2022-11-12T09:46:52.355Z,101151.31
2022-11-12T09:49:28.525Z,101152.69
2022-11-12T09:52:04.633Z,101168.81
2022-11-12T09:54:35.013Z,101165.84
2022-11-12T09:57:02.344Z,101165.97
2022-11-12T09:59:33.159Z,101159.38
2022-11-12T10:02:23.364Z,101161.66
2022-11-12T10:05:09.836Z,101168.97
2022-11-12T10:08:35.090Z,101169.25
2022-11-12T10:11:21.969Z,101154.41
2022-11-12T10:14:19.568Z,101167.81
2022-11-12T10:17:28.320Z,101161.66
2022-11-12T10:20:38.685Z,101160.16
2022-11-12T10:23:19.776Z,101157.81
2022-11-12T10:25:51.840Z,101156.28
2022-11-12T10:28:39.320Z,101161.88
2022-11-12T10:31:20.913Z,101156.91
2022-11-12T10:33:48.081Z,101157.94
2022-11-12T10:36:24.549Z,101155.50
2022-11-12T10:38:54.917Z,101157.47
2022-11-12T10:41:27.032Z,101150.66
2022-11-12T10:44:00.663Z,101151.75
2022-11-12T10:46:32.418Z,101150.06
2022-11-12T10:49:02.436Z,101140.34
2022-11-12T10:51:36.336Z,101141.56
2022-11-12T10:54:30.136Z,101130.84
2022-11-12T10:56:57.372Z,101127.56
2022-11-12T10:59:26.214Z,101131.97
2022-11-12T11:02:01.245Z,101130.69
2022-11-12T11:04:33.756Z,101122.50
2022-11-12T11:07:20.403Z,101112.75
2022-11-12T11:10:00.343Z,101111.59
2022-11-12T11:12:31.291Z,101114.53
2022-11-12T11:15:16.244Z,101111.47
2022-11-12T11:17:43.058Z,101106.59
2022-11-12T11:20:47.473Z,101111.56
2022-11-12T11:23:34.319Z,101093.59
2022-11-12T11:26:18.793Z,101108.59
2022-11-12T11:29:08.996Z,101109.63
2022-11-12T11:32:01.880Z,101106.38
2022-11-12T11:35:11.204Z,101104.75
2022-11-12T11:38:02.387Z,101099.69
2022-11-12T11:41:32.813Z,101103.59
2022-11-12T11:44:42.869Z,101097.38
2022-11-12T11:48:00.450Z,101095.75
2022-11-12T11:50:35.720Z,101098.22
2022-11-12T11:53:18.290Z,101092.22
2022-11-12T11:55:57.192Z,101096.31
2022-11-12T11:58:40.985Z,101093.69
2022-11-12T12:01:42.564Z,101096.50
2022-11-12T12:04:24.128Z,101101.59
2022-11-12T12:07:20.260Z,101096.59
2022-11-12T12:13:38.059Z,101086.38
2022-11-12T12:16:46.103Z,101084.38
2022-11-12T12:19:58.784Z,101083.44
2022-11-12T12:22:45.045Z,101079.56
2022-11-12T12:25:21.795Z,101077.38
2022-11-12T12:28:26.637Z,101077.00
2022-11-12T12:31:04.207Z,101074.78
2022-11-12T12:33:55.976Z,101079.47
2022-11-12T12:36:31.832Z,101070.31
2022-11-12T12:39:14.445Z,101071.53
2022-11-12T12:41:57.581Z,101071.81
2022-11-12T12:44:49.852Z,101073.78
2022-11-12T12:47:19.744Z,101076.66
2022-11-12T12:49:49.817Z,101077.75
2022-11-12T12:52:16.665Z,101077.06
2022-11-12T12:54:52.449Z,101078.13
2022-11-12T12:57:39.743Z,101074.91
2022-11-12T13:00:38.356Z,101080.31
2022-11-12T13:03:06.472Z,101066.81
2022-11-12T13:05:40.296Z,101072.13
2022-11-12T13:08:13.693Z,101076.50
2022-11-12T13:10:41.331Z,101068.97
2022-11-12T13:13:20.759Z,101066.56
2022-11-12T13:15:53.151Z,101063.31
2022-11-12T13:18:37.930Z,101064.34
2022-11-12T13:21:11.978Z,101066.19
2022-11-12T13:24:08.428Z,101077.53
2022-11-12T13:26:56.665Z,101070.84
2022-11-12T13:29:29.242Z,101070.97
2022-11-12T13:32:31.295Z,101071.06
2022-11-12T13:35:24.500Z,101072.06
2022-11-12T13:37:52.270Z,101066.06
2022-11-12T13:40:50.121Z,101060.97
2022-11-12T13:43:38.909Z,101048.25
2022-11-12T13:46:11.179Z,101052.59
2022-11-12T13:48:49.658Z,101060.34
2022-11-12T13:51:27.954Z,101050.97
2022-11-12T13:53:54.955Z,101050.13
2022-11-12T13:56:36.036Z,101041.63
2022-11-12T13:59:29.180Z,101045.13
2022-11-12T14:01:56.368Z,101037.47
2022-11-12T14:04:24.861Z,101036.66
2022-11-12T14:07:24.148Z,101025.56
2022-11-12T14:10:20.046Z,101039.31
2022-11-12T14:13:36.275Z,101039.41
2022-11-12T14:16:18.782Z,101041.16
2022-11-12T14:19:15.443Z,101036.06
2022-11-12T14:21:42.280Z,101029.25
2022-11-12T14:24:13.462Z,101036.13
2022-11-12T14:26:43.052Z,101035.31
2022-11-12T14:29:19.677Z,101034.50
2022-11-12T14:32:02.768Z,101023.47
2022-11-12T14:34:34.704Z,101020.94
2022-11-12T14:37:02.052Z,101023.53
2022-11-12T14:39:30.604Z,101017.59
2022-11-12T14:41:59.661Z,101013.34
2022-11-12T14:44:36.555Z,101016.78
2022-11-12T14:47:04.093Z,101015.94
2022-11-12T14:49:44.866Z,101016.84
2022-11-12T14:52:31.048Z,101021.16
2022-11-12T14:55:10.267Z,101022.94
2022-11-12T14:57:37.488Z,101025.53
2022-11-12T15:00:44.020Z,101016.19
2022-11-12T15:03:30.654Z,101017.97
2022-11-12T15:06:03.659Z,101017.97
2022-11-12T15:08:35.877Z,101011.16
2022-11-12T15:11:30.363Z,101014.63
2022-11-12T15:14:01.862Z,101010.38
2022-11-12T15:16:34.802Z,101002.72
2022-11-12T15:19:18.383Z,101007.00
2022-11-12T15:21:58.044Z,100997.59
2022-11-12T15:24:36.542Z,101001.91
2022-11-12T15:27:36.057Z,101005.34
2022-11-12T15:30:19.742Z,101004.53
2022-11-12T15:32:47.147Z,101005.41
2022-11-12T15:35:44.287Z,101005.44
2022-11-12T15:38:25.422Z,101005.47
2022-11-12T15:40:57.696Z,100992.69
2022-11-12T15:43:32.240Z,100990.16
2022-11-12T15:45:59.258Z,100988.47
2022-11-12T15:48:26.012Z,100984.25
2022-11-12T15:50:52.968Z,100980.00
2022-11-12T15:53:19.811Z,100982.59
2022-11-12T15:55:47.197Z,100979.19
2022-11-12T15:58:24.250Z,100980.91
2022-11-12T16:00:51.101Z,100969.03
2022-11-12T16:03:22.250Z,100980.94
2022-11-12T16:05:49.014Z,100977.56
2022-11-12T16:08:16.058Z,100980.13
2022-11-12T16:10:46.277Z,100968.22
2022-11-12T16:13:33.139Z,100973.34
2022-11-12T16:16:04.915Z,100969.94
2022-11-12T16:18:31.652Z,100969.94
2022-11-12T16:20:58.466Z,100965.69
2022-11-12T16:23:25.557Z,100970.81
2022-11-12T16:25:52.585Z,100965.72
2022-11-12T16:28:19.631Z,100969.97
2022-11-12T16:30:47.746Z,100971.66
2022-11-12T16:33:14.680Z,100968.25
2022-11-12T16:35:41.770Z,100964.84
2022-11-12T16:38:16.896Z,100968.25
2022-11-12T16:40:45.360Z,100961.41
2022-11-12T16:43:12.226Z,100969.03
2022-11-12T16:45:42.044Z,100963.09
2022-11-12T16:48:21.696Z,100965.63
2022-11-12T16:50:49.076Z,100964.78
2022-11-12T16:53:15.845Z,100955.41
2022-11-12T16:55:42.566Z,100956.28
2022-11-12T16:58:14.381Z,100962.22
2022-11-12T17:00:45.719Z,100958.78
2022-11-12T17:03:13.924Z,100958.78
2022-11-12T17:05:41.003Z,100959.66
2022-11-12T17:08:10.580Z,100952.00
2022-11-12T17:10:37.465Z,100949.44
2022-11-12T17:13:04.201Z,100955.38
2022-11-12T17:15:30.907Z,100952.00
2022-11-12T17:17:57.607Z,100948.56
2022-11-12T17:20:24.323Z,100944.31
2022-11-12T17:22:51.068Z,100935.84
2022-11-12T17:25:17.810Z,100936.66
2022-11-12T17:27:44.498Z,100932.41
2022-11-12T17:30:12.085Z,100934.94
2022-11-12T17:32:38.835Z,100930.69
2022-11-12T17:35:06.375Z,100933.22
2022-11-12T17:37:33.099Z,100934.91
2022-11-12T17:39:59.776Z,100935.75
2022-11-12T17:42:26.532Z,100934.88
2022-11-12T17:44:53.206Z,100925.50
2022-11-12T17:47:19.940Z,100925.50
2022-11-12T17:49:46.631Z,100922.09
2022-11-12T17:52:13.356Z,100928.03
2022-11-12T17:54:40.175Z,100928.00
2022-11-12T17:57:06.929Z,100924.59
2022-11-12T17:59:33.626Z,100922.91
2022-11-12T18:02:00.385Z,100918.63
2022-11-12T18:04:30.731Z,100917.72
2022-11-12T18:06:58.130Z,100929.59
2022-11-12T18:09:25.044Z,100914.31
2022-11-12T18:11:56.626Z,100921.06
2022-11-12T18:14:24.528Z,100921.84
2022-11-12T18:16:51.581Z,100926.94
2022-11-12T18:19:18.441Z,100920.09
2022-11-12T18:21:45.274Z,100920.94
2022-11-12T18:24:16.448Z,100920.91
2022-11-12T18:26:44.157Z,100922.59
2022-11-12T18:29:12.458Z,100910.69
2022-11-12T18:31:40.555Z,100918.28
2022-11-12T18:34:13.334Z,100910.63
2022-11-12T18:36:40.127Z,100915.72
2022-11-12T18:39:06.914Z,100921.63
2022-11-12T18:41:34.072Z,100920.75
2022-11-12T18:44:01.420Z,100915.66
2022-11-12T18:46:28.218Z,100913.06
2022-11-12T18:48:54.964Z,100909.63
2022-11-12T18:51:21.706Z,100909.63
2022-11-12T18:53:48.523Z,100911.28
2022-11-12T18:56:19.474Z,100907.00
2022-11-12T18:58:47.177Z,100908.66
2022-11-12T19:01:17.941Z,100904.34
2022-11-12T19:03:44.722Z,100911.13
2022-11-12T19:06:13.829Z,100911.91
2022-11-12T19:08:41.663Z,100900.88
2022-11-12T19:11:15.134Z,100899.13
2022-11-12T19:13:43.033Z,100894.88
2022-11-12T19:16:12.740Z,100895.69
2022-11-12T19:18:41.474Z,100896.53
2022-11-12T19:21:13.830Z,100903.34
2022-11-12T19:23:41.391Z,100910.19
2022-11-12T19:26:12.330Z,100911.06
2022-11-12T19:28:39.648Z,100900.88
2022-11-12T19:31:12.770Z,100892.44
2022-11-12T19:33:39.957Z,100891.59
2022-11-12T19:36:09.622Z,100899.25
2022-11-12T19:38:36.580Z,100888.25
2022-11-12T19:41:19.351Z,100892.50
2022-11-12T19:43:47.213Z,100890.84
2022-11-12T19:46:14.788Z,100884.91
2022-11-12T19:48:42.091Z,100886.59
2022-11-12T19:51:10.780Z,100883.22
2022-11-12T19:53:44.233Z,100888.31
2022-11-12T19:56:14.484Z,100890.03
2022-11-12T19:58:46.205Z,100879.03
2022-11-12T20:01:16.358Z,100879.03
2022-11-12T20:03:43.893Z,100881.53
2022-11-12T20:06:14.468Z,100884.94
2022-11-12T20:08:41.876Z,100873.88
2022-11-12T20:11:08.903Z,100872.19
2022-11-12T20:13:35.845Z,100876.44
2022-11-12T20:16:08.072Z,100869.63
2022-11-12T20:18:34.968Z,100873.00
2022-11-12T20:21:04.847Z,100878.97
2022-11-12T20:23:35.865Z,100868.72
2022-11-12T20:26:09.723Z,100869.56
2022-11-12T20:28:38.917Z,100868.69
2022-11-12T20:31:11.108Z,100867.78
2022-11-12T20:33:42.410Z,100863.50
2022-11-12T20:36:13.402Z,100859.22
2022-11-12T20:38:43.722Z,100857.50
2022-11-12T20:41:15.744Z,100854.94
2022-11-12T20:43:42.753Z,100847.25
2022-11-12T20:46:11.860Z,100844.72
2022-11-12T20:48:43.185Z,100854.84
2022-11-12T20:51:23.868Z,100850.56
2022-11-12T20:53:58.700Z,100861.53
2022-11-12T20:56:27.281Z,100852.19
2022-11-12T20:58:54.154Z,100843.69
2022-11-12T21:01:23.579Z,100849.56
2022-11-12T21:03:50.813Z,100849.56
2022-11-12T21:06:21.786Z,100847.81
2022-11-12T21:08:48.896Z,100847.75
2022-11-12T21:11:20.202Z,100840.09
2022-11-12T21:13:47.075Z,100842.59
2022-11-12T21:16:15.004Z,100845.94
2022-11-12T21:18:42.200Z,100834.06
2022-11-12T21:21:16.508Z,100840.78
2022-11-12T21:23:44.938Z,100839.03
2022-11-12T21:26:15.736Z,100840.69
2022-11-12T21:28:54.313Z,100841.47
2022-11-12T21:31:24.895Z,100838.03
2022-11-12T21:34:00.556Z,100840.56
2022-11-12T21:36:28.219Z,100837.09
2022-11-12T21:38:55.299Z,100836.22
2022-11-12T21:41:28.536Z,100823.47
2022-11-12T21:43:55.353Z,100830.22
2022-11-12T21:46:31.404Z,100830.13
2022-11-12T21:48:58.519Z,100820.78
2022-11-12T21:51:31.908Z,100816.53
2022-11-12T21:54:02.445Z,100821.59
2022-11-12T21:56:30.579Z,100806.31
2022-11-12T21:59:01.311Z,100814.72
2022-11-12T22:01:31.660Z,100815.53
2022-11-12T22:03:59.752Z,100818.00
2022-11-12T22:06:29.599Z,100817.13
2022-11-12T22:08:58.289Z,100813.69
2022-11-12T22:11:26.036Z,100822.94
2022-11-12T22:13:52.743Z,100816.94
2022-11-12T22:16:25.819Z,100814.38
2022-11-12T22:18:55.658Z,100815.19
2022-11-12T22:21:29.583Z,100817.66
2022-11-12T22:23:58.089Z,100818.44
2022-11-12T22:26:27.745Z,100815.91
2022-11-12T22:28:57.122Z,100820.13
2022-11-12T22:31:30.630Z,100809.97
2022-11-12T22:34:00.842Z,100806.53
2022-11-12T22:36:31.129Z,100807.34
2022-11-12T22:38:58.362Z,100802.19
2022-11-12T22:41:30.844Z,100802.16
2022-11-12T22:44:00.822Z,100798.69
2022-11-12T22:46:33.564Z,100801.16
2022-11-12T22:49:01.112Z,100799.41
2022-11-12T22:51:31.176Z,100795.13
2022-11-12T22:54:01.551Z,100799.28
2022-11-12T22:56:29.783Z,100793.34
2022-11-12T22:58:57.827Z,100796.63
2022-11-12T23:01:34.714Z,100788.16
2022-11-12T23:04:05.497Z,100786.44
2022-11-12T23:06:32.474Z,100782.16
2022-11-12T23:09:00.604Z,100783.00
2022-11-12T23:11:28.623Z,100776.22
2022-11-12T23:13:56.520Z,100780.41
2022-11-12T23:16:31.730Z,100782.06
2022-11-12T23:18:59.647Z,100774.44
2022-11-12T23:21:29.781Z,100777.00
2022-11-12T23:23:58.329Z,100777.88
2022-11-12T23:26:28.547Z,100780.41
2022-11-12T23:28:55.266Z,100783.78
2022-11-12T23:31:27.556Z,100776.19
2022-11-12T23:33:57.247Z,100770.31
2022-11-12T23:36:26.571Z,100772.03
2022-11-12T23:38:54.110Z,100769.47
2022-11-12T23:41:25.631Z,100777.94
2022-11-12T23:43:54.890Z,100771.16
2022-11-12T23:46:22.627Z,100765.25
2022-11-12T23:48:49.857Z,100767.78
2022-11-12T23:51:22.273Z,100769.47
2022-11-12T23:53:49.739Z,100764.34
2022-11-12T23:56:19.713Z,100777.00
2022-11-12T23:58:47.309Z,100761.78
